Time,TemperatureF,DewpointF,PressureIn,WindDirection,WindDirectionDegrees,WindSpeedMPH,WindSpeedGustMPH,Humidity,HourlyPrecipIn,Conditions,Clouds,dailyrainin,SolarRadiationWatts/m^2,SoftwareType,DateUTC
2013-02-20 00:00:00,36.7,20.7,29.26,East,90,15.0,32.0,52,0.00,,,0.00,0000,Weather View 32 v70,2013-02-20 05:00:00,
2013-02-20 00:05:00,36.5,20.5,29.27,East,101,11.0,32.0,52,0.00,,,0.00,0000,Weather View 32 v70,2013-02-20 05:05:00,
2013-02-20 00:10:00,36.4,19.9,29.28,East,96,12.0,32.0,51,0.00,,,0.00,0000,Weather View 32 v70,2013-02-20 05:10:00,
2013-02-20 00:15:00,36.4,19.5,29.27,East,96,21.0,32.0,50,0.00,,,0.00,0000,Weather View 32 v70,2013-02-20 05:15:00,
2013-02-20 00:20:00,36.0,20.1,29.27,East,101,21.0,32.0,52,0.00,,,0.00,0000,Weather View 32 v70,2013-02-20 05:20:00,
2013-02-20 00:25:00,36.0,20.1,29.26,East,96,18.0,32.0,52,0.00,,,0.00,0000,Weather View 32 v70,2013-02-20 05:25:00,
2013-02-20 00:30:00,35.8,20.3,29.27,East,90,15.0,32.0,53,0.00,,,0.00,0000,Weather View 32 v70,2013-02-20 05:30:00,
2013-02-20 00:35:00,35.6,20.1,29.28,East,96,14.0,32.0,53,0.00,,,0.00,0000,Weather View 32 v70,2013-02-20 05:35:00,
2013-02-20 00:40:00,35.6,20.1,29.27,East,96,9.0,32.0,53,0.00,,,0.00,0000,Weather View 32 v70,2013-02-20 05:40:00,
2013-02-20 00:45:00,35.6,20.5,29.27,East,96,10.0,32.0,54,0.00,,,0.00,0000,Weather View 32 v70,2013-02-20 05:45:00,
2013-02-20 00:50:00,35.4,20.8,29.29,East,96,9.0,32.0,55,0.00,,,0.00,0000,Weather View 32 v70,2013-02-20 05:50:00,
2013-02-20 00:55:00,35.1,21.0,29.28,East,96,11.0,30.0,56,0.00,,,0.00,0000,Weather View 32 v70,2013-02-20 05:55:00,
2013-02-20 01:00:00,35.0,20.9,29.28,East,96,7.0,28.0,56,0.00,,,0.00,0000,Weather View 32 v70,2013-02-20 06:00:00,
2013-02-20 01:05:00,35.1,21.0,29.28,East,96,7.0,28.0,56,0.00,,,0.00,0000,Weather View 32 v70,2013-02-20 06:05:00,
2013-02-20 01:10:00,34.9,20.8,29.28,East,96,12.0,28.0,56,0.00,,,0.00,0000,Weather View 32 v70,2013-02-20 06:10:00,
2013-02-20 01:15:00,34.9,20.8,29.29,East,90,9.0,26.0,56,0.00,,,0.00,0000,Weather View 32 v70,2013-02-20 06:15:00,
2013-02-20 01:20:00,34.8,20.7,29.28,East,90,12.0,26.0,56,0.00,,,0.00,0000,Weather View 32 v70,2013-02-20 06:20:00,
2013-02-20 01:25:00,34.7,20.6,29.29,East,96,8.0,26.0,56,0.00,,,0.00,0000,Weather View 32 v70,2013-02-20 06:25:00,
2013-02-20 01:30:00,34.3,21.1,29.29,East,96,7.0,26.0,58,0.00,,,0.00,0000,Weather View 32 v70,2013-02-20 06:30:00,
2013-02-20 01:35:00,34.5,21.2,29.29,East,101,12.0,26.0,58,0.00,,,0.00,0000,Weather View 32 v70,2013-02-20 06:35:00,
2013-02-20 01:40:00,34.3,20.7,29.29,East,90,9.0,26.0,57,0.00,,,0.00,0000,Weather View 32 v70,2013-02-20 06:40:00,
2013-02-20 01:45:00,34.3,20.7,29.29,East,101,13.0,26.0,57,0.00,,,0.00,0000,Weather View 32 v70,2013-02-20 06:45:00,
2013-02-20 01:50:00,34.2,20.6,29.29,East,96,5.0,26.0,57,0.00,,,0.00,0000,Weather View 32 v70,2013-02-20 06:50:00,
2013-02-20 01:55:00,34.2,20.6,29.29,East,101,9.0,26.0,57,0.00,,,0.00,0000,Weather View 32 v70,2013-02-20 06:55:00,
2013-02-20 02:00:00,34.1,20.4,29.29,East,96,10.0,26.0,57,0.00,,,0.00,0000,Weather View 32 v70,2013-02-20 07:00:00,
2013-02-20 02:05:00,34.0,20.4,29.29,East,96,10.0,21.0,57,0.00,,,0.00,0000,Weather View 32 v70,2013-02-20 07:05:00,
2013-02-20 02:10:00,34.0,19.9,29.29,East,96,11.0,21.0,56,0.00,,,0.00,0000,Weather View 32 v70,2013-02-20 07:10:00,
2013-02-20 02:15:00,34.1,19.6,29.29,East,90,11.0,21.0,55,0.00,,,0.00,0000,Weather View 32 v70,2013-02-20 07:15:00,
2013-02-20 02:20:00,33.9,19.8,29.29,East,96,6.0,20.0,56,0.00,,,0.00,0000,Weather View 32 v70,2013-02-20 07:20:00,
2013-02-20 02:25:00,33.8,20.1,29.29,East,90,10.0,20.0,57,0.00,,,0.00,0000,Weather View 32 v70,2013-02-20 07:25:00,
2013-02-20 02:30:00,33.6,19.9,29.30,East,96,11.0,20.0,57,0.00,,,0.00,0000,Weather View 32 v70,2013-02-20 07:30:00,
2013-02-20 02:35:00,33.4,19.8,29.29,East,96,12.0,20.0,57,0.00,,,0.00,0000,Weather View 32 v70,2013-02-20 07:35:00,
2013-02-20 02:40:00,33.4,19.8,29.29,East,101,16.0,20.0,57,0.00,,,0.00,0000,Weather View 32 v70,2013-02-20 07:40:00,
2013-02-20 02:45:00,33.6,19.5,29.30,East,96,13.0,20.0,56,0.00,,,0.00,0000,Weather View 32 v70,2013-02-20 07:45:00,
2013-02-20 02:50:00,33.3,19.3,29.29,East,96,5.0,21.0,56,0.00,,,0.00,0000,Weather View 32 v70,2013-02-20 07:50:00,
2013-02-20 02:55:00,33.3,18.9,29.29,East,96,11.0,23.0,55,0.00,,,0.00,0000,Weather View 32 v70,2013-02-20 07:55:00,
2013-02-20 03:00:00,33.2,18.3,29.29,East,101,23.0,27.0,54,0.00,,,0.00,0000,Weather View 32 v70,2013-02-20 08:00:00,
2013-02-20 03:05:00,32.9,18.5,29.29,East,101,13.0,27.0,55,0.00,,,0.00,0000,Weather View 32 v70,2013-02-20 08:05:00,
2013-02-20 03:10:00,32.8,18.3,29.29,East,96,6.0,27.0,55,0.00,,,0.00,0000,Weather View 32 v70,2013-02-20 08:10:00,
2013-02-20 03:15:00,32.8,18.8,29.29,East,96,9.0,27.0,56,0.00,,,0.00,0000,Weather View 32 v70,2013-02-20 08:15:00,
2013-02-20 03:20:00,32.5,18.6,29.29,East,96,12.0,27.0,56,0.00,,,0.00,0000,Weather View 32 v70,2013-02-20 08:20:00,
2013-02-20 03:25:00,32.7,19.1,29.29,East,96,6.0,27.0,57,0.00,,,0.00,0000,Weather View 32 v70,2013-02-20 08:25:00,
2013-02-20 03:30:00,32.3,19.2,29.29,East,101,15.0,27.0,58,0.00,,,0.00,0000,Weather View 32 v70,2013-02-20 08:30:00,
2013-02-20 03:35:00,32.3,19.2,29.29,East,96,11.0,27.0,58,0.00,,,0.00,0000,Weather View 32 v70,2013-02-20 08:35:00,
2013-02-20 03:40:00,32.1,19.8,29.29,East,96,7.0,27.0,60,0.00,,,0.00,0000,Weather View 32 v70,2013-02-20 08:40:00,
2013-02-20 03:45:00,31.9,19.5,29.29,East,96,11.0,27.0,60,0.00,,,0.00,0000,Weather View 32 v70,2013-02-20 08:45:00,
2013-02-20 03:50:00,32.0,19.6,29.29,East,90,14.0,27.0,60,0.00,,,0.00,0000,Weather View 32 v70,2013-02-20 08:50:00,
2013-02-20 03:55:00,31.9,19.5,29.30,East,96,10.0,27.0,60,0.00,,,0.00,0000,Weather View 32 v70,2013-02-20 08:55:00,
2013-02-20 04:00:00,31.6,19.3,29.30,ESE,107,15.0,26.0,60,0.00,,,0.00,0000,Weather View 32 v70,2013-02-20 09:00:00,
2013-02-20 04:05:00,31.4,19.1,29.30,East,96,18.0,26.0,60,0.00,,,0.00,0000,Weather View 32 v70,2013-02-20 09:05:00,
2013-02-20 04:10:00,31.3,19.0,29.30,East,96,12.0,26.0,60,0.00,,,0.00,0000,Weather View 32 v70,2013-02-20 09:10:00,
2013-02-20 04:15:00,31.1,18.8,29.30,East,96,9.0,26.0,60,0.00,,,0.00,0000,Weather View 32 v70,2013-02-20 09:15:00,
2013-02-20 04:20:00,30.9,19.0,29.30,East,96,7.0,23.0,61,0.00,,,0.00,0000,Weather View 32 v70,2013-02-20 09:20:00,
2013-02-20 04:25:00,30.7,18.5,29.31,East,101,9.0,23.0,60,0.00,,,0.00,0000,Weather View 32 v70,2013-02-20 09:25:00,
2013-02-20 04:30:00,30.6,18.0,29.31,East,96,11.0,23.0,59,0.00,,,0.00,0000,Weather View 32 v70,2013-02-20 09:30:00,
2013-02-20 04:35:00,30.5,18.3,29.31,East,101,14.0,23.0,60,0.00,,,0.00,0000,Weather View 32 v70,2013-02-20 09:35:00,
2013-02-20 04:40:00,30.5,17.5,29.31,East,96,4.0,23.0,58,0.00,,,0.00,0000,Weather View 32 v70,2013-02-20 09:40:00,
2013-02-20 04:45:00,30.5,17.5,29.31,East,96,14.0,22.0,58,0.00,,,0.00,0000,Weather View 32 v70,2013-02-20 09:45:00,
2013-02-20 04:50:00,30.5,17.1,29.31,East,96,6.0,24.0,57,0.00,,,0.00,0000,Weather View 32 v70,2013-02-20 09:50:00,
2013-02-20 04:55:00,30.5,17.1,29.31,East,96,17.0,24.0,57,0.00,,,0.00,0000,Weather View 32 v70,2013-02-20 09:55:00,
2013-02-20 05:00:00,30.4,17.0,29.32,East,96,9.0,24.0,57,0.00,,,0.00,0000,Weather View 32 v70,2013-02-20 10:00:00,
2013-02-20 05:05:00,30.6,18.4,29.32,East,101,10.0,24.0,60,0.00,,,0.00,0000,Weather View 32 v70,2013-02-20 10:05:00,
2013-02-20 05:10:00,30.4,16.6,29.32,East,96,5.0,24.0,56,0.00,,,0.00,0000,Weather View 32 v70,2013-02-20 10:10:00,
2013-02-20 05:15:00,30.5,16.7,29.32,East,96,11.0,24.0,56,0.00,,,0.00,0000,Weather View 32 v70,2013-02-20 10:15:00,
2013-02-20 05:20:00,30.5,17.1,29.33,East,96,9.0,24.0,57,0.00,,,0.00,0000,Weather View 32 v70,2013-02-20 10:20:00,
2013-02-20 05:25:00,30.3,16.5,29.33,East,96,12.0,24.0,56,0.00,,,0.00,0000,Weather View 32 v70,2013-02-20 10:25:00,
2013-02-20 05:30:00,30.1,17.1,29.33,East,96,10.0,24.0,58,0.00,,,0.00,0000,Weather View 32 v70,2013-02-20 10:30:00,
2013-02-20 05:35:00,30.1,16.2,29.33,East,101,12.0,24.0,56,0.00,,,0.00,0000,Weather View 32 v70,2013-02-20 10:35:00,
2013-02-20 05:40:00,30.0,16.1,29.33,East,101,12.0,24.0,56,0.00,,,0.00,0000,Weather View 32 v70,2013-02-20 10:40:00,
2013-02-20 05:45:00,29.8,15.6,29.33,East,96,12.0,24.0,55,0.00,,,0.00,0000,Weather View 32 v70,2013-02-20 10:45:00,
2013-02-20 05:50:00,29.7,15.5,29.33,East,96,5.0,23.0,55,0.00,,,0.00,0000,Weather View 32 v70,2013-02-20 10:50:00,
2013-02-20 05:55:00,29.6,15.4,29.34,East,96,6.0,23.0,55,0.00,,,0.00,0000,Weather View 32 v70,2013-02-20 10:55:00,
2013-02-20 06:00:00,29.6,15.8,29.34,East,96,14.0,24.0,56,0.00,,,0.00,0000,Weather View 32 v70,2013-02-20 11:00:00,
2013-02-20 06:05:00,29.5,14.9,29.34,East,96,14.0,25.0,54,0.00,,,0.00,0000,Weather View 32 v70,2013-02-20 11:05:00,
2013-02-20 06:10:00,29.4,14.8,29.35,East,96,10.0,25.0,54,0.00,,,0.00,0000,Weather View 32 v70,2013-02-20 11:10:00,
2013-02-20 06:15:00,29.5,14.9,29.35,East,96,12.0,25.0,54,0.00,,,0.00,0000,Weather View 32 v70,2013-02-20 11:15:00,
2013-02-20 06:20:00,29.4,14.8,29.35,East,96,8.0,25.0,54,0.00,,,0.00,0000,Weather View 32 v70,2013-02-20 11:20:00,
2013-02-20 06:25:00,29.4,14.8,29.35,East,96,7.0,25.0,54,0.00,,,0.00,0000,Weather View 32 v70,2013-02-20 11:25:00,
2013-02-20 06:30:00,29.4,13.9,29.36,East,96,11.0,25.0,52,0.00,,,0.00,0000,Weather View 32 v70,2013-02-20 11:30:00,
2013-02-20 06:35:00,29.5,13.6,29.36,East,90,7.0,25.0,51,0.00,,,0.00,0000,Weather View 32 v70,2013-02-20 11:35:00,
2013-02-20 06:40:00,29.3,13.8,29.36,East,96,11.0,25.0,52,0.00,,,0.00,0000,Weather View 32 v70,2013-02-20 11:40:00,
2013-02-20 06:45:00,29.3,13.8,29.37,East,101,18.0,25.0,52,0.00,,,0.00,0000,Weather View 32 v70,2013-02-20 11:45:00,
2013-02-20 06:50:00,29.2,13.3,29.37,East,96,10.0,25.0,51,0.00,,,0.00,0000,Weather View 32 v70,2013-02-20 11:50:00,
2013-02-20 06:55:00,29.4,13.5,29.37,East,96,16.0,25.0,51,0.00,,,0.00,0016,Weather View 32 v70,2013-02-20 11:55:00,
2013-02-20 07:00:00,29.3,13.4,29.37,East,90,8.0,25.0,51,0.00,,,0.00,0008,Weather View 32 v70,2013-02-20 12:00:00,
2013-02-20 07:05:00,29.3,13.4,29.37,East,101,16.0,24.0,51,0.00,,,0.00,0008,Weather View 32 v70,2013-02-20 12:05:00,
2013-02-20 07:10:00,29.2,13.7,29.37,East,96,14.0,25.0,52,0.00,,,0.00,0008,Weather View 32 v70,2013-02-20 12:10:00,
2013-02-20 07:15:00,29.2,14.1,29.38,East,90,13.0,25.0,53,0.00,,,0.00,0016,Weather View 32 v70,2013-02-20 12:15:00,
2013-02-20 07:20:00,29.1,14.5,29.38,East,96,8.0,25.0,54,0.00,,,0.00,0024,Weather View 32 v70,2013-02-20 12:20:00,
2013-02-20 07:25:00,29.1,14.9,29.38,East,101,12.0,25.0,55,0.00,,,0.00,0032,Weather View 32 v70,2013-02-20 12:25:00,
2013-02-20 07:30:00,29.1,15.3,29.38,East,96,6.0,25.0,56,0.00,,,0.00,0024,Weather View 32 v70,2013-02-20 12:30:00,
2013-02-20 07:35:00,29.1,15.3,29.38,East,101,11.0,25.0,56,0.00,,,0.00,0016,Weather View 32 v70,2013-02-20 12:35:00,
2013-02-20 07:40:00,29.1,15.7,29.38,East,96,6.0,25.0,57,0.00,,,0.00,0016,Weather View 32 v70,2013-02-20 12:40:00,
2013-02-20 07:45:00,29.1,16.1,29.38,East,96,11.0,25.0,58,0.00,,,0.00,0024,Weather View 32 v70,2013-02-20 12:45:00,
2013-02-20 07:50:00,28.9,16.0,29.39,East,96,14.0,25.0,58,0.00,,,0.00,0032,Weather View 32 v70,2013-02-20 12:50:00,
2013-02-20 07:55:00,29.1,16.5,29.39,East,96,11.0,25.0,59,0.00,,,0.00,0040,Weather View 32 v70,2013-02-20 12:55:00,
2013-02-20 08:00:00,28.9,16.0,29.39,East,101,11.0,29.0,58,0.00,,,0.00,0048,Weather View 32 v70,2013-02-20 13:00:00,
2013-02-20 08:05:00,29.1,16.5,29.39,East,90,13.0,29.0,59,0.00,,,0.00,0056,Weather View 32 v70,2013-02-20 13:05:00,
2013-02-20 08:10:00,29.1,16.5,29.39,East,96,5.0,29.0,59,0.00,,,0.00,0056,Weather View 32 v70,2013-02-20 13:10:00,
2013-02-20 08:15:00,29.1,16.1,29.39,East,84,9.0,29.0,58,0.00,,,0.00,0064,Weather View 32 v70,2013-02-20 13:15:00,
2013-02-20 08:20:00,28.8,15.1,29.39,ESE,113,19.0,29.0,56,0.00,,,0.00,0128,Weather View 32 v70,2013-02-20 13:20:00,
2013-02-20 08:25:00,29.1,14.9,29.39,East,96,7.0,29.0,55,0.00,,,0.00,0120,Weather View 32 v70,2013-02-20 13:25:00,
2013-02-20 08:30:00,28.8,14.3,29.39,East,96,22.0,29.0,54,0.00,,,0.00,0112,Weather View 32 v70,2013-02-20 13:30:00,
2013-02-20 08:35:00,29.7,15.1,29.40,East,90,6.0,29.0,54,0.00,,,0.00,0328,Weather View 32 v70,2013-02-20 13:35:00,
2013-02-20 08:40:00,30.0,14.4,29.39,East,96,6.0,29.0,52,0.00,,,0.00,0376,Weather View 32 v70,2013-02-20 13:40:00,
2013-02-20 08:45:00,29.8,14.3,29.38,East,96,11.0,29.0,52,0.00,,,0.00,0296,Weather View 32 v70,2013-02-20 13:45:00,
2013-02-20 08:50:00,30.4,14.4,29.39,East,96,7.0,29.0,51,0.00,,,0.00,0400,Weather View 32 v70,2013-02-20 13:50:00,
2013-02-20 08:55:00,29.8,13.4,29.39,East,101,12.0,29.0,50,0.00,,,0.00,0144,Weather View 32 v70,2013-02-20 13:55:00,
2013-02-20 09:00:00,29.4,13.0,29.39,East,96,5.0,28.0,50,0.00,,,0.00,0160,Weather View 32 v70,2013-02-20 14:00:00,
2013-02-20 09:05:00,28.8,12.1,29.39,East,101,11.0,28.0,49,0.00,,,0.00,0128,Weather View 32 v70,2013-02-20 14:05:00,
2013-02-20 09:10:00,29.8,12.0,29.38,East,96,12.0,28.0,47,0.00,,,0.00,0520,Weather View 32 v70,2013-02-20 14:10:00,
2013-02-20 09:15:00,30.3,12.0,29.39,East,96,5.0,28.0,46,0.00,,,0.00,0488,Weather View 32 v70,2013-02-20 14:15:00,
2013-02-20 09:20:00,30.5,12.2,29.39,East,96,4.0,28.0,46,0.00,,,0.00,0528,Weather View 32 v70,2013-02-20 14:20:00,
2013-02-20 09:25:00,31.0,11.6,29.40,East,96,13.0,28.0,44,0.00,,,0.00,0256,Weather View 32 v70,2013-02-20 14:25:00,
2013-02-20 09:30:00,30.7,11.4,29.39,East,96,8.0,28.0,44,0.00,,,0.00,0504,Weather View 32 v70,2013-02-20 14:30:00,
2013-02-20 09:35:00,30.4,10.6,29.39,ESE,113,17.0,27.0,43,0.00,,,0.00,0520,Weather View 32 v70,2013-02-20 14:35:00,
2013-02-20 09:40:00,30.0,10.1,29.39,East,90,13.0,27.0,43,0.00,,,0.00,0544,Weather View 32 v70,2013-02-20 14:40:00,
2013-02-20 09:45:00,30.7,10.3,29.39,East,96,9.0,27.0,42,0.00,,,0.00,0568,Weather View 32 v70,2013-02-20 14:45:00,
2013-02-20 09:50:00,31.5,10.5,29.39,East,101,10.0,27.0,41,0.00,,,0.00,0616,Weather View 32 v70,2013-02-20 14:50:00,
2013-02-20 09:55:00,31.5,10.0,29.39,East,96,4.0,27.0,40,0.00,,,0.00,0664,Weather View 32 v70,2013-02-20 14:55:00,
2013-02-20 10:00:00,30.5,10.1,29.39,East,101,9.0,27.0,42,0.00,,,0.00,0240,Weather View 32 v70,2013-02-20 15:00:00,
2013-02-20 10:05:00,30.7,10.3,29.39,East,96,9.0,27.0,42,0.00,,,0.00,0288,Weather View 32 v70,2013-02-20 15:05:00,
2013-02-20 10:10:00,30.4,10.6,29.39,East,96,11.0,25.0,43,0.00,,,0.00,0736,Weather View 32 v70,2013-02-20 15:10:00,
2013-02-20 10:15:00,29.4,8.6,29.39,East,96,6.0,25.0,41,0.00,,,0.00,0552,Weather View 32 v70,2013-02-20 15:15:00,
2013-02-20 10:20:00,30.1,9.7,29.39,East,101,14.0,25.0,42,0.00,,,0.00,0304,Weather View 32 v70,2013-02-20 15:20:00,
2013-02-20 10:25:00,29.1,9.3,29.39,East,96,12.0,25.0,43,0.00,,,0.00,0312,Weather View 32 v70,2013-02-20 15:25:00,
2013-02-20 10:30:00,29.3,9.0,29.39,East,96,16.0,25.0,42,0.00,,,0.00,0248,Weather View 32 v70,2013-02-20 15:30:00,
2013-02-20 10:35:00,29.7,9.9,29.39,East,96,3.0,25.0,43,0.00,,,0.00,0184,Weather View 32 v70,2013-02-20 15:35:00,
2013-02-20 10:40:00,30.4,9.5,29.39,East,84,15.0,26.0,41,0.00,,,0.00,0696,Weather View 32 v70,2013-02-20 15:40:00,
2013-02-20 10:45:00,32.0,10.9,29.40,East,96,8.0,26.0,41,0.00,,,0.00,0288,Weather View 32 v70,2013-02-20 15:45:00,
2013-02-20 10:50:00,30.2,8.2,29.39,East,84,15.0,26.0,39,0.00,,,0.00,0792,Weather View 32 v70,2013-02-20 15:50:00,
2013-02-20 10:55:00,29.5,8.1,29.38,East,96,8.0,26.0,40,0.00,,,0.00,0808,Weather View 32 v70,2013-02-20 15:55:00,
2013-02-20 11:00:00,30.9,9.9,29.38,ESE,107,10.0,26.0,41,0.00,,,0.00,0792,Weather View 32 v70,2013-02-20 16:00:00,
2013-02-20 11:05:00,30.7,9.2,29.38,ESE,118,17.0,26.0,40,0.00,,,0.00,0264,Weather View 32 v70,2013-02-20 16:05:00,
2013-02-20 11:10:00,29.7,8.9,29.38,East,101,8.0,26.0,41,0.00,,,0.00,0280,Weather View 32 v70,2013-02-20 16:10:00,
2013-02-20 11:15:00,30.3,9.9,29.38,East,96,5.0,26.0,42,0.00,,,0.00,0224,Weather View 32 v70,2013-02-20 16:15:00,
2013-02-20 11:20:00,29.8,9.0,29.38,East,96,7.0,26.0,41,0.00,,,0.00,0736,Weather View 32 v70,2013-02-20 16:20:00,
2013-02-20 11:25:00,30.3,9.9,29.39,East,96,5.0,26.0,42,0.00,,,0.00,0264,Weather View 32 v70,2013-02-20 16:25:00,
2013-02-20 11:30:00,29.7,9.4,29.38,East,96,7.0,26.0,42,0.00,,,0.00,0240,Weather View 32 v70,2013-02-20 16:30:00,
2013-02-20 11:35:00,30.3,9.9,29.38,East,96,9.0,26.0,42,0.00,,,0.00,0376,Weather View 32 v70,2013-02-20 16:35:00,
2013-02-20 11:40:00,30.1,9.2,29.38,East,101,16.0,26.0,41,0.00,,,0.00,0360,Weather View 32 v70,2013-02-20 16:40:00,
2013-02-20 11:45:00,30.5,9.0,29.38,East,101,3.0,26.0,40,0.00,,,0.00,0336,Weather View 32 v70,2013-02-20 16:45:00,
2013-02-20 11:50:00,30.5,9.6,29.38,East,96,16.0,25.0,41,0.00,,,0.00,0496,Weather View 32 v70,2013-02-20 16:50:00,
2013-02-20 11:55:00,30.5,9.6,29.38,East,96,3.0,24.0,41,0.00,,,0.00,0272,Weather View 32 v70,2013-02-20 16:55:00,
2013-02-20 12:00:00,29.7,8.9,29.38,ESE,107,14.0,25.0,41,0.00,,,0.00,0352,Weather View 32 v70,2013-02-20 17:00:00,
2013-02-20 12:05:00,30.7,9.2,29.38,East,90,13.0,25.0,40,0.00,,,0.00,0912,Weather View 32 v70,2013-02-20 17:05:00,
2013-02-20 12:10:00,30.2,8.7,29.37,East,101,11.0,27.0,40,0.00,,,0.00,0344,Weather View 32 v70,2013-02-20 17:10:00,
2013-02-20 12:15:00,30.9,8.8,29.37,East,96,7.0,27.0,39,0.00,,,0.00,0360,Weather View 32 v70,2013-02-20 17:15:00,
2013-02-20 12:20:00,31.8,9.6,29.38,East,90,13.0,27.0,39,0.00,,,0.00,0544,Weather View 32 v70,2013-02-20 17:20:00,
2013-02-20 12:25:00,31.3,8.6,29.37,East,101,10.0,27.0,38,0.00,,,0.00,0800,Weather View 32 v70,2013-02-20 17:25:00,
2013-02-20 12:30:00,30.2,8.2,29.37,East,96,9.0,27.0,39,0.00,,,0.00,0264,Weather View 32 v70,2013-02-20 17:30:00,
2013-02-20 12:35:00,29.7,7.2,29.37,East,101,9.0,27.0,38,0.00,,,0.00,0416,Weather View 32 v70,2013-02-20 17:35:00,
2013-02-20 12:40:00,29.7,7.8,29.37,East,90,7.0,27.0,39,0.00,,,0.00,0368,Weather View 32 v70,2013-02-20 17:40:00,
2013-02-20 12:45:00,30.6,9.7,29.38,ESE,113,10.0,27.0,41,0.00,,,0.00,0320,Weather View 32 v70,2013-02-20 17:45:00,
2013-02-20 12:50:00,30.5,9.6,29.38,East,90,8.0,27.0,41,0.00,,,0.00,0312,Weather View 32 v70,2013-02-20 17:50:00,
2013-02-20 12:56:00,29.5,8.7,29.37,East,84,20.0,27.0,41,0.00,,,0.00,0312,Weather View 32 v70,2013-02-20 17:56:00,
2013-02-20 13:01:00,30.5,10.6,29.37,East,96,5.0,27.0,43,0.00,,,0.00,0264,Weather View 32 v70,2013-02-20 18:01:00,
2013-02-20 13:06:00,30.1,9.7,29.38,East,96,12.0,27.0,42,0.00,,,0.00,0248,Weather View 32 v70,2013-02-20 18:06:00,
2013-02-20 13:11:00,29.7,9.9,29.38,East,90,13.0,26.0,43,0.00,,,0.00,0216,Weather View 32 v70,2013-02-20 18:11:00,
2013-02-20 13:16:00,29.2,9.4,29.38,East,96,11.0,26.0,43,0.00,,,0.00,0176,Weather View 32 v70,2013-02-20 18:16:00,
2013-02-20 13:21:00,30.0,9.6,29.38,East,96,6.0,26.0,42,0.00,,,0.00,0256,Weather View 32 v70,2013-02-20 18:21:00,
2013-02-20 13:26:00,30.6,9.7,29.38,East,96,5.0,26.0,41,0.00,,,0.00,0320,Weather View 32 v70,2013-02-20 18:26:00,
2013-02-20 13:31:00,29.6,8.2,29.38,East,101,11.0,27.0,40,0.00,,,0.00,0224,Weather View 32 v70,2013-02-20 18:31:00,
2013-02-20 13:36:00,29.4,8.6,29.38,East,101,19.0,27.0,41,0.00,,,0.00,0224,Weather View 32 v70,2013-02-20 18:36:00,
2013-02-20 13:41:00,29.4,8.6,29.38,ESE,107,7.0,27.0,41,0.00,,,0.00,0192,Weather View 32 v70,2013-02-20 18:41:00,
2013-02-20 13:46:00,29.3,9.0,29.38,ESE,113,14.0,27.0,42,0.00,,,0.00,0192,Weather View 32 v70,2013-02-20 18:46:00,
2013-02-20 13:51:00,29.6,8.8,29.38,ESE,107,7.0,27.0,41,0.00,,,0.00,0232,Weather View 32 v70,2013-02-20 18:51:00,
2013-02-20 13:56:00,29.7,9.4,29.39,East,96,10.0,27.0,42,0.00,,,0.00,0240,Weather View 32 v70,2013-02-20 18:56:00,
2013-02-20 14:01:00,29.7,9.9,29.38,East,96,7.0,27.0,43,0.00,,,0.00,0280,Weather View 32 v70,2013-02-20 19:01:00,
2013-02-20 14:06:00,29.8,11.1,29.39,East,96,10.0,27.0,45,0.00,,,0.00,0152,Weather View 32 v70,2013-02-20 19:06:00,
2013-02-20 14:11:00,29.4,10.6,29.39,East,96,8.0,27.0,45,0.00,,,0.00,0128,Weather View 32 v70,2013-02-20 19:11:00,
2013-02-20 14:16:00,29.5,11.3,29.39,East,96,6.0,27.0,46,0.00,,,0.00,0120,Weather View 32 v70,2013-02-20 19:16:00,
2013-02-20 14:21:00,29.2,9.4,29.39,East,101,11.0,27.0,43,0.00,,,0.00,0144,Weather View 32 v70,2013-02-20 19:21:00,
2013-02-20 14:26:00,29.2,8.4,29.39,East,96,3.0,27.0,41,0.00,,,0.00,0168,Weather View 32 v70,2013-02-20 19:26:00,
2013-02-20 14:31:00,31.4,11.5,29.40,East,96,8.0,26.0,43,0.00,,,0.00,0608,Weather View 32 v70,2013-02-20 19:31:00,
2013-02-20 14:36:00,29.6,8.8,29.39,East,96,13.0,26.0,41,0.00,,,0.00,0120,Weather View 32 v70,2013-02-20 19:36:00,
2013-02-20 14:41:00,28.8,7.5,29.39,East,96,11.0,26.0,40,0.00,,,0.00,0104,Weather View 32 v70,2013-02-20 19:41:00,
2013-02-20 14:46:00,29.4,9.1,29.39,ESE,107,11.0,26.0,42,0.00,,,0.00,0104,Weather View 32 v70,2013-02-20 19:46:00,
2013-02-20 14:51:00,28.7,8.5,29.40,East,101,11.0,28.0,42,0.00,,,0.00,0096,Weather View 32 v70,2013-02-20 19:51:00,
2013-02-20 14:56:00,29.2,9.4,29.39,East,96,17.0,28.0,43,0.00,,,0.00,0128,Weather View 32 v70,2013-02-20 19:56:00,
2013-02-20 15:01:00,29.2,8.9,29.40,East,96,7.0,28.0,42,0.00,,,0.00,0136,Weather View 32 v70,2013-02-20 20:01:00,
2013-02-20 15:06:00,28.8,9.1,29.40,ESE,107,13.0,29.0,43,0.00,,,0.00,0096,Weather View 32 v70,2013-02-20 20:06:00,
2013-02-20 15:11:00,28.9,9.2,29.40,East,96,7.0,29.0,43,0.00,,,0.00,0088,Weather View 32 v70,2013-02-20 20:11:00,
2013-02-20 15:16:00,28.9,9.7,29.41,East,96,8.0,29.0,44,0.00,,,0.00,0080,Weather View 32 v70,2013-02-20 20:16:00,
2013-02-20 15:21:00,29.6,10.3,29.41,East,101,8.0,29.0,44,0.00,,,0.00,0480,Weather View 32 v70,2013-02-20 20:21:00,
2013-02-20 15:26:00,28.9,8.7,29.40,East,96,8.0,29.0,42,0.00,,,0.00,0096,Weather View 32 v70,2013-02-20 20:26:00,
2013-02-20 15:31:00,29.2,8.9,29.41,ESE,118,21.0,29.0,42,0.00,,,0.00,0080,Weather View 32 v70,2013-02-20 20:31:00,
2013-02-20 15:36:00,29.2,8.9,29.41,East,96,14.0,29.0,42,0.00,,,0.00,0096,Weather View 32 v70,2013-02-20 20:36:00,
2013-02-20 15:41:00,29.1,9.3,29.42,East,96,9.0,29.0,43,0.00,,,0.00,0136,Weather View 32 v70,2013-02-20 20:41:00,
2013-02-20 15:46:00,28.7,10.0,29.41,East,96,9.0,29.0,45,0.00,,,0.00,0096,Weather View 32 v70,2013-02-20 20:46:00,
2013-02-20 15:51:00,28.7,11.5,29.43,ESE,107,15.0,29.0,48,0.00,,,0.00,0096,Weather View 32 v70,2013-02-20 20:51:00,
2013-02-20 15:56:00,28.5,11.7,29.42,East,90,13.0,29.0,49,0.00,,,0.00,0072,Weather View 32 v70,2013-02-20 20:56:00,
2013-02-20 16:01:00,28.3,12.0,29.42,East,101,14.0,29.0,50,0.00,,,0.00,0056,Weather View 32 v70,2013-02-20 21:01:00,
2013-02-20 16:06:00,28.2,11.4,29.42,East,96,9.0,27.0,49,0.00,,,0.00,0056,Weather View 32 v70,2013-02-20 21:06:00,
2013-02-20 16:11:00,29.4,11.6,29.43,East,96,6.0,27.0,47,0.00,,,0.00,0208,Weather View 32 v70,2013-02-20 21:11:00,
2013-02-20 16:16:00,28.6,10.4,29.42,East,96,4.0,27.0,46,0.00,,,0.00,0088,Weather View 32 v70,2013-02-20 21:16:00,
2013-02-20 16:21:00,28.7,10.5,29.42,East,101,14.0,27.0,46,0.00,,,0.00,0088,Weather View 32 v70,2013-02-20 21:21:00,
2013-02-20 16:26:00,28.4,9.7,29.42,East,96,16.0,29.0,45,0.00,,,0.00,0080,Weather View 32 v70,2013-02-20 21:26:00,
2013-02-20 16:31:00,28.4,9.7,29.43,East,96,18.0,29.0,45,0.00,,,0.00,0064,Weather View 32 v70,2013-02-20 21:31:00,
2013-02-20 16:36:00,29.6,11.3,29.43,ESE,107,10.0,29.0,46,0.00,,,0.00,0160,Weather View 32 v70,2013-02-20 21:36:00,
2013-02-20 16:41:00,29.8,11.1,29.42,East,96,7.0,29.0,45,0.00,,,0.00,0152,Weather View 32 v70,2013-02-20 21:41:00,
2013-02-20 16:46:00,30.0,10.7,29.42,East,96,10.0,29.0,44,0.00,,,0.00,0168,Weather View 32 v70,2013-02-20 21:46:00,
2013-02-20 16:51:00,28.8,9.6,29.42,East,96,11.0,31.0,44,0.00,,,0.00,0112,Weather View 32 v70,2013-02-20 21:51:00,
2013-02-20 16:56:00,29.1,10.3,29.43,East,96,4.0,31.0,45,0.00,,,0.00,0048,Weather View 32 v70,2013-02-20 21:56:00,
2013-02-20 17:01:00,28.4,10.2,29.42,ESE,118,17.0,31.0,46,0.00,,,0.00,0024,Weather View 32 v70,2013-02-20 22:01:00,
2013-02-20 17:06:00,28.4,10.7,29.43,East,101,12.0,31.0,47,0.00,,,0.00,0008,Weather View 32 v70,2013-02-20 22:06:00,
2013-02-20 17:11:00,28.3,10.6,29.44,East,101,8.0,31.0,47,0.00,,,0.00,0000,Weather View 32 v70,2013-02-20 22:11:00,
2013-02-20 17:16:00,28.3,10.6,29.44,East,101,18.0,31.0,47,0.00,,,0.00,0000,Weather View 32 v70,2013-02-20 22:16:00,
2013-02-20 17:21:00,28.3,10.6,29.44,East,101,13.0,31.0,47,0.00,,,0.00,0000,Weather View 32 v70,2013-02-20 22:21:00,
2013-02-20 17:26:00,28.3,11.1,29.44,East,96,10.0,31.0,48,0.00,,,0.00,0000,Weather View 32 v70,2013-02-20 22:26:00,
2013-02-20 17:31:00,28.3,10.6,29.44,East,90,19.0,31.0,47,0.00,,,0.00,0000,Weather View 32 v70,2013-02-20 22:31:00,
2013-02-20 17:36:00,28.2,10.5,29.45,East,96,11.0,31.0,47,0.00,,,0.00,0000,Weather View 32 v70,2013-02-20 22:36:00,
2013-02-20 17:41:00,28.2,11.4,29.45,East,101,15.0,31.0,49,0.00,,,0.00,0000,Weather View 32 v70,2013-02-20 22:41:00,
2013-02-20 17:46:00,28.4,9.7,29.45,East,96,13.0,31.0,45,0.00,,,0.00,0000,Weather View 32 v70,2013-02-20 22:46:00,
2013-02-20 17:51:00,28.3,9.6,29.45,East,90,5.0,31.0,45,0.00,,,0.00,0000,Weather View 32 v70,2013-02-20 22:51:00,
2013-02-20 17:56:00,28.4,9.7,29.46,East,96,5.0,28.0,45,0.00,,,0.00,0000,Weather View 32 v70,2013-02-20 22:56:00,
2013-02-20 18:01:00,28.3,9.1,29.46,ESE,107,12.0,28.0,44,0.00,,,0.00,0000,Weather View 32 v70,2013-02-20 23:01:00,
2013-02-20 18:06:00,28.2,9.0,29.46,ESE,113,17.0,28.0,44,0.00,,,0.00,0000,Weather View 32 v70,2013-02-20 23:06:00,
2013-02-20 18:11:00,27.9,9.3,29.46,East,96,14.0,28.0,45,0.00,,,0.00,0000,Weather View 32 v70,2013-02-20 23:11:00,
2013-02-20 18:16:00,28.2,12.3,29.47,East,96,9.0,28.0,51,0.00,,,0.00,0000,Weather View 32 v70,2013-02-20 23:16:00,
2013-02-20 18:21:00,27.4,12.5,29.47,ESE,118,14.0,28.0,53,0.00,,,0.00,0000,Weather View 32 v70,2013-02-20 23:21:00,
2013-02-20 18:26:00,27.1,13.1,29.48,SE,124,10.0,28.0,55,0.00,,,0.00,0000,Weather View 32 v70,2013-02-20 23:26:00,
2013-02-20 18:31:00,27.1,12.7,29.48,East,101,11.0,28.0,54,0.00,,,0.00,0000,Weather View 32 v70,2013-02-20 23:31:00,
2013-02-20 18:36:00,27.1,12.7,29.48,East,96,8.0,28.0,54,0.00,,,0.00,0000,Weather View 32 v70,2013-02-20 23:36:00,
2013-02-20 18:41:00,27.1,12.7,29.49,East,96,10.0,28.0,54,0.00,,,0.00,0000,Weather View 32 v70,2013-02-20 23:41:00,
2013-02-20 18:46:00,27.0,12.6,29.49,ESE,107,7.0,28.0,54,0.00,,,0.00,0000,Weather View 32 v70,2013-02-20 23:46:00,
2013-02-20 18:51:00,26.9,13.7,29.49,East,90,16.0,28.0,57,0.00,,,0.00,0000,Weather View 32 v70,2013-02-20 23:51:00,
2013-02-20 18:56:00,26.5,13.7,29.49,East,101,6.0,28.0,58,0.00,,,0.00,0000,Weather View 32 v70,2013-02-20 23:56:00,
2013-02-20 19:01:00,26.5,13.7,29.49,ESE,107,14.0,28.0,58,0.00,,,0.00,0000,Weather View 32 v70,2013-02-21 00:01:00,
2013-02-20 19:06:00,26.5,14.4,29.49,East,101,13.0,28.0,60,0.00,,,0.00,0000,Weather View 32 v70,2013-02-21 00:06:00,
2013-02-20 19:11:00,26.2,13.5,29.49,East,96,24.0,28.0,58,0.00,,,0.00,0000,Weather View 32 v70,2013-02-21 00:11:00,
2013-02-20 19:16:00,26.2,13.1,29.48,East,90,10.0,25.0,57,0.00,,,0.00,0000,Weather View 32 v70,2013-02-21 00:16:00,
2013-02-20 19:21:00,26.1,12.6,29.48,ESE,107,18.0,31.0,56,0.00,,,0.00,0000,Weather View 32 v70,2013-02-21 00:21:00,
2013-02-20 19:26:00,26.1,12.2,29.49,East,101,10.0,31.0,55,0.00,,,0.00,0000,Weather View 32 v70,2013-02-21 00:26:00,
2013-02-20 19:31:00,26.1,12.2,29.50,East,101,7.0,31.0,55,0.00,,,0.00,0000,Weather View 32 v70,2013-02-21 00:31:00,
2013-02-20 19:36:00,26.0,12.0,29.50,East,96,3.0,31.0,55,0.00,,,0.00,0000,Weather View 32 v70,2013-02-21 00:36:00,
2013-02-20 19:41:00,26.1,11.7,29.51,East,96,6.0,31.0,54,0.00,,,0.00,0000,Weather View 32 v70,2013-02-21 00:41:00,
2013-02-20 19:46:00,26.1,11.7,29.51,East,96,6.0,31.0,54,0.00,,,0.00,0000,Weather View 32 v70,2013-02-21 00:46:00,
2013-02-20 19:51:00,26.1,9.6,29.52,ESE,118,11.0,31.0,49,0.00,,,0.00,0000,Weather View 32 v70,2013-02-21 00:51:00,
2013-02-20 19:56:00,25.8,9.7,29.52,East,101,5.0,31.0,50,0.00,,,0.00,0000,Weather View 32 v70,2013-02-21 00:56:00,
2013-02-20 20:01:00,25.8,9.2,29.52,East,96,6.0,31.0,49,0.00,,,0.00,0000,Weather View 32 v70,2013-02-21 01:01:00,
2013-02-20 20:06:00,25.7,9.6,29.52,East,101,5.0,31.0,50,0.00,,,0.00,0000,Weather View 32 v70,2013-02-21 01:06:00,
2013-02-20 20:11:00,25.6,10.4,29.52,East,96,8.0,31.0,52,0.00,,,0.00,0000,Weather View 32 v70,2013-02-21 01:11:00,
2013-02-20 20:16:00,25.6,9.0,29.53,East,101,8.0,31.0,49,0.00,,,0.00,0000,Weather View 32 v70,2013-02-21 01:16:00,
2013-02-20 20:21:00,25.5,8.5,29.51,East,90,12.0,30.0,48,0.00,,,0.00,0000,Weather View 32 v70,2013-02-21 01:21:00,
2013-02-20 20:26:00,25.5,8.0,29.51,East,101,13.0,26.0,47,0.00,,,0.00,0000,Weather View 32 v70,2013-02-21 01:26:00,
2013-02-20 20:31:00,25.3,7.9,29.51,ESE,113,17.0,26.0,47,0.00,,,0.00,0000,Weather View 32 v70,2013-02-21 01:31:00,
2013-02-20 20:36:00,25.3,8.4,29.51,East,96,6.0,28.0,48,0.00,,,0.00,0000,Weather View 32 v70,2013-02-21 01:36:00,
2013-02-20 20:41:00,25.2,7.8,29.51,East,101,12.0,33.0,47,0.00,,,0.00,0000,Weather View 32 v70,2013-02-21 01:41:00,
2013-02-20 20:46:00,25.1,8.2,29.52,ESE,107,18.0,33.0,48,0.00,,,0.00,0000,Weather View 32 v70,2013-02-21 01:46:00,
2013-02-20 20:51:00,25.1,8.6,29.51,East,101,14.0,33.0,49,0.00,,,0.00,0000,Weather View 32 v70,2013-02-21 01:51:00,
2013-02-20 20:56:00,24.9,8.0,29.51,East,101,9.0,33.0,48,0.00,,,0.00,0000,Weather View 32 v70,2013-02-21 01:56:00,
2013-02-20 21:01:00,24.9,8.0,29.51,East,96,6.0,33.0,48,0.00,,,0.00,0000,Weather View 32 v70,2013-02-21 02:01:00,
2013-02-20 21:06:00,24.9,8.4,29.52,East,101,11.0,33.0,49,0.00,,,0.00,0000,Weather View 32 v70,2013-02-21 02:06:00,
2013-02-20 21:11:00,24.7,8.2,29.52,East,96,11.0,33.0,49,0.00,,,0.00,0000,Weather View 32 v70,2013-02-21 02:11:00,
2013-02-20 21:16:00,24.9,8.9,29.51,East,90,15.0,33.0,50,0.00,,,0.00,0000,Weather View 32 v70,2013-02-21 02:16:00,
2013-02-20 21:21:00,24.7,8.2,29.51,East,101,9.0,33.0,49,0.00,,,0.00,0000,Weather View 32 v70,2013-02-21 02:21:00,
2013-02-20 21:26:00,24.7,8.6,29.52,East,96,11.0,33.0,50,0.00,,,0.00,0000,Weather View 32 v70,2013-02-21 02:26:00,
2013-02-20 21:31:00,24.8,9.2,29.52,East,101,10.0,33.0,51,0.00,,,0.00,0000,Weather View 32 v70,2013-02-21 02:31:00,
2013-02-20 21:36:00,24.7,8.6,29.51,East,101,9.0,33.0,50,0.00,,,0.00,0000,Weather View 32 v70,2013-02-21 02:36:00,
2013-02-20 21:41:00,24.7,9.9,29.52,East,96,8.0,25.0,53,0.00,,,0.00,0000,Weather View 32 v70,2013-02-21 02:41:00,
2013-02-20 21:46:00,24.6,8.6,29.51,ESE,107,8.0,25.0,50,0.00,,,0.00,0000,Weather View 32 v70,2013-02-21 02:46:00,
2013-02-20 21:51:00,24.6,8.6,29.51,East,101,9.0,22.0,50,0.00,,,0.00,0000,Weather View 32 v70,2013-02-21 02:51:00,
2013-02-20 21:56:00,24.7,9.1,29.51,ESE,113,13.0,22.0,51,0.00,,,0.00,0000,Weather View 32 v70,2013-02-21 02:56:00,
2013-02-20 22:01:00,24.3,8.8,29.52,East,101,10.0,22.0,51,0.00,,,0.00,0000,Weather View 32 v70,2013-02-21 03:01:00,
2013-02-20 22:06:00,24.7,10.4,29.52,East,96,7.0,25.0,54,0.00,,,0.00,0000,Weather View 32 v70,2013-02-21 03:06:00,
2013-02-20 22:11:00,24.3,8.3,29.52,East,96,7.0,25.0,50,0.00,,,0.00,0000,Weather View 32 v70,2013-02-21 03:11:00,
2013-02-20 22:16:00,24.2,8.7,29.53,East,96,2.0,25.0,51,0.00,,,0.00,0000,Weather View 32 v70,2013-02-21 03:16:00,
2013-02-20 22:21:00,24.3,8.8,29.53,East,96,9.0,25.0,51,0.00,,,0.00,0000,Weather View 32 v70,2013-02-21 03:21:00,
2013-02-20 22:26:00,24.1,8.6,29.53,East,96,9.0,25.0,51,0.00,,,0.00,0000,Weather View 32 v70,2013-02-21 03:26:00,
2013-02-20 22:31:00,24.1,9.0,29.54,East,96,5.0,25.0,52,0.00,,,0.00,0000,Weather View 32 v70,2013-02-21 03:31:00,
2013-02-20 22:36:00,24.1,9.0,29.54,East,101,4.0,25.0,52,0.00,,,0.00,0000,Weather View 32 v70,2013-02-21 03:36:00,
2013-02-20 22:41:00,24.1,9.0,29.54,ESE,113,13.0,25.0,52,0.00,,,0.00,0000,Weather View 32 v70,2013-02-21 03:41:00,
2013-02-20 22:46:00,24.1,9.0,29.54,East,96,10.0,25.0,52,0.00,,,0.00,0000,Weather View 32 v70,2013-02-21 03:46:00,
2013-02-20 22:51:00,24.0,8.9,29.53,East,96,7.0,25.0,52,0.00,,,0.00,0000,Weather View 32 v70,2013-02-21 03:51:00,
2013-02-20 22:56:00,24.1,10.7,29.53,East,96,7.0,26.0,56,0.00,,,0.00,0000,Weather View 32 v70,2013-02-21 03:56:00,
2013-02-20 23:01:00,24.0,8.9,29.54,East,101,8.0,28.0,52,0.00,,,0.00,0000,Weather View 32 v70,2013-02-21 04:01:00,
2013-02-20 23:06:00,23.9,8.8,29.53,East,96,4.0,28.0,52,0.00,,,0.00,0000,Weather View 32 v70,2013-02-21 04:06:00,
2013-02-20 23:11:00,24.0,8.9,29.53,East,96,6.0,28.0,52,0.00,,,0.00,0000,Weather View 32 v70,2013-02-21 04:11:00,
2013-02-20 23:16:00,23.8,9.1,29.53,ESE,113,12.0,28.0,53,0.00,,,0.00,0000,Weather View 32 v70,2013-02-21 04:16:00,
2013-02-20 23:21:00,23.9,9.6,29.53,East,101,8.0,28.0,54,0.00,,,0.00,0000,Weather View 32 v70,2013-02-21 04:21:00,
2013-02-20 23:26:00,23.7,9.0,29.54,East,96,8.0,28.0,53,0.00,,,0.00,0000,Weather View 32 v70,2013-02-21 04:26:00,
2013-02-20 23:31:00,23.5,8.9,29.54,East,101,5.0,28.0,53,0.00,,,0.00,0000,Weather View 32 v70,2013-02-21 04:31:00,
2013-02-20 23:36:00,23.8,9.5,29.53,ESE,118,13.0,28.0,54,0.00,,,0.00,0000,Weather View 32 v70,2013-02-21 04:36:00,
2013-02-20 23:41:00,23.8,9.1,29.54,East,96,8.0,28.0,53,0.00,,,0.00,0000,Weather View 32 v70,2013-02-21 04:41:00,
2013-02-20 23:46:00,24.0,8.9,29.54,East,101,8.0,28.0,52,0.00,,,0.00,0000,Weather View 32 v70,2013-02-21 04:46:00,
2013-02-20 23:51:00,23.7,9.0,29.54,ESE,107,13.0,28.0,53,0.00,,,0.00,0000,Weather View 32 v70,2013-02-21 04:51:00,
2013-02-20 23:56:00,23.8,8.7,29.54,East,96,3.0,28.0,52,0.00,,,0.00,0000,Weather View 32 v70,2013-02-21 04:56:00,